Time;durP1;ratioP1;P1;durP2;ratioP2;P2;SDS_P1;SDS_P2;PMS_P1;PMS_P2;Temp;Humidity;BMP_temperature;BMP_pressure;BME280_temperature;BME280_humidity;BME280_pressure;Samples;Min_cycle;Max_cycle;Signal;HPM_P1;HPM_P2
2023/12/07 00:01:19;;;;;;;42.33;25.63;;;0.70;99.90;;;;;;5072688;28;20249;-80
2023/12/07 00:03:45;;;;;;;41.07;25.13;;;0.60;99.90;;;;;;5072940;28;20193;-80
2023/12/07 00:06:12;;;;;;;44.57;26.40;;;0.70;99.90;;;;;;5072703;28;20274;-78
2023/12/07 00:08:40;;;;;;;43.13;26.70;;;0.60;99.90;;;;;;5072645;28;20205;-79
2023/12/07 00:11:06;;;;;;;42.60;26.73;;;0.70;99.90;;;;;;5072913;28;20247;-81
2023/12/07 00:13:33;;;;;;;41.73;25.70;;;0.70;99.90;;;;;;5073085;28;20200;-82
2023/12/07 00:16:00;;;;;;;48.43;27.07;;;0.70;99.90;;;;;;5073229;28;20204;-81
2023/12/07 00:18:27;;;;;;;43.97;25.23;;;0.70;99.90;;;;;;5072875;28;20274;-79
2023/12/07 00:20:53;;;;;;;45.30;26.27;;;0.70;99.90;;;;;;5072405;28;20200;-79
2023/12/07 00:23:20;;;;;;;43.50;25.70;;;0.70;99.90;;;;;;5072432;28;20208;-76
2023/12/07 00:25:49;;;;;;;46.43;27.40;;;0.80;99.90;;;;;;5072647;28;20294;-76
2023/12/07 00:28:16;;;;;;;42.90;25.60;;;0.70;99.90;;;;;;5072654;28;20235;-76
2023/12/07 00:30:43;;;;;;;44.13;27.37;;;0.70;99.90;;;;;;5072533;28;20390;-77
2023/12/07 00:33:10;;;;;;;46.57;26.97;;;0.70;99.90;;;;;;5075898;28;20306;-75
2023/12/07 00:35:36;;;;;;;48.60;26.53;;;0.70;99.90;;;;;;5076612;28;20211;-76
2023/12/07 00:38:03;;;;;;;43.83;27.03;;;0.60;99.90;;;;;;5076442;28;20200;-76
2023/12/07 00:40:30;;;;;;;48.73;29.07;;;0.60;99.90;;;;;;5076698;28;20200;-76
2023/12/07 00:42:58;;;;;;;48.93;29.00;;;0.60;99.90;;;;;;5076650;28;20603;-76
2023/12/07 00:45:25;;;;;;;44.60;27.17;;;0.70;99.90;;;;;;5076487;28;20201;-76
2023/12/07 00:47:52;;;;;;;48.03;28.37;;;0.60;99.90;;;;;;5076418;28;20201;-76
2023/12/07 00:50:18;;;;;;;43.17;27.40;;;0.60;99.90;;;;;;5076119;28;20272;-76
2023/12/07 00:52:45;;;;;;;45.07;25.70;;;0.60;99.90;;;;;;5076503;28;20266;-77
2023/12/07 00:55:12;;;;;;;46.77;27.60;;;0.60;99.90;;;;;;5076447;28;20252;-76
2023/12/07 00:57:38;;;;;;;43.30;26.70;;;0.60;99.90;;;;;;5078208;28;20205;-76
2023/12/07 01:00:08;;;;;;;45.17;26.97;;;0.60;99.90;;;;;;5076352;28;20223;-76
2023/12/07 01:02:35;;;;;;;46.27;27.57;;;0.60;99.90;;;;;;5075950;28;20712;-77
2023/12/07 01:05:01;;;;;;;45.97;26.53;;;0.60;99.90;;;;;;5075909;28;20197;-76
2023/12/07 01:07:28;;;;;;;46.43;27.50;;;0.70;99.90;;;;;;5075880;28;20309;-77
2023/12/07 01:09:55;;;;;;;51.10;30.33;;;0.70;99.90;;;;;;5075847;28;20196;-76
2023/12/07 01:12:21;;;;;;;50.93;31.50;;;0.80;99.90;;;;;;5075951;28;20223;-77
2023/12/07 01:14:48;;;;;;;51.03;29.80;;;0.80;99.90;;;;;;5075757;28;20201;-76
2023/12/07 01:17:16;;;;;;;47.07;28.67;;;0.80;99.90;;;;;;5075838;28;20201;-77
2023/12/07 01:19:42;;;;;;;47.10;27.87;;;0.70;99.90;;;;;;5075656;28;20247;-77
2023/12/07 01:22:09;;;;;;;46.97;29.27;;;0.70;99.90;;;;;;5075846;28;20196;-76
2023/12/07 01:24:36;;;;;;;47.40;27.97;;;0.70;99.90;;;;;;5075960;28;20196;-77
2023/12/07 01:27:02;;;;;;;51.17;29.73;;;0.70;99.90;;;;;;5075677;28;20228;-76
2023/12/07 01:29:29;;;;;;;48.53;28.87;;;0.60;99.90;;;;;;5075715;28;20205;-76
2023/12/07 01:31:56;;;;;;;52.10;29.07;;;0.60;99.90;;;;;;5075507;28;20714;-76
2023/12/07 01:34:24;;;;;;;47.80;28.13;;;0.70;99.90;;;;;;5075404;28;20197;-76
2023/12/07 01:36:50;;;;;;;49.50;28.03;;;0.70;99.90;;;;;;5075574;28;20197;-76
2023/12/07 01:39:17;;;;;;;52.80;28.63;;;0.70;99.90;;;;;;5075416;28;20250;-76
2023/12/07 01:41:44;;;;;;;57.67;30.67;;;0.70;99.90;;;;;;5075423;28;20258;-77
2023/12/07 01:44:10;;;;;;;51.47;30.20;;;0.80;99.90;;;;;;5075274;28;20288;-77
2023/12/07 01:46:37;;;;;;;51.20;30.50;;;0.80;99.90;;;;;;5075102;28;20240;-76
2023/12/07 01:49:04;;;;;;;53.20;31.37;;;0.80;99.90;;;;;;5075100;28;20237;-76
2023/12/07 01:51:32;;;;;;;52.10;31.37;;;0.90;99.90;;;;;;5075282;28;20209;-77
2023/12/07 01:53:59;;;;;;;49.83;30.43;;;0.80;99.90;;;;;;5075266;28;20258;-76
2023/12/07 01:56:26;;;;;;;53.03;31.33;;;0.90;99.90;;;;;;5075251;28;20230;-77
2023/12/07 01:58:54;;;;;;;57.23;30.60;;;0.90;99.90;;;;;;5075093;28;20255;-76
2023/12/07 02:01:20;;;;;;;52.73;31.13;;;0.90;99.90;;;;;;5074823;28;20243;-76
2023/12/07 02:03:47;;;;;;;55.90;31.80;;;0.90;99.90;;;;;;5075216;28;20201;-75
2023/12/07 02:06:14;;;;;;;50.53;30.40;;;0.90;99.90;;;;;;5075050;28;20289;-76
2023/12/07 02:08:42;;;;;;;55.37;30.43;;;0.90;99.90;;;;;;5075004;28;20292;-76
2023/12/07 02:11:09;;;;;;;50.90;30.13;;;0.90;99.90;;;;;;5074743;28;20243;-76
2023/12/07 02:13:37;;;;;;;51.07;28.93;;;0.90;99.90;;;;;;5074812;28;20193;-76
2023/12/07 02:16:11;;;;;;;48.53;30.67;;;0.80;99.90;;;;;;5074737;28;20664;-76
2023/12/07 02:18:41;;;;;;;50.63;31.50;;;0.80;99.90;;;;;;5074678;28;20599;-76
2023/12/07 02:21:16;;;;;;;51.33;30.73;;;0.90;99.90;;;;;;5074696;28;20289;-77
2023/12/07 02:23:47;;;;;;;50.57;29.50;;;0.90;99.90;;;;;;5074680;28;20201;-76
2023/12/07 02:26:19;;;;;;;51.57;31.13;;;0.90;99.90;;;;;;5074582;28;20270;-76
2023/12/07 02:28:47;;;;;;;56.67;30.47;;;0.90;99.90;;;;;;5074679;28;20197;-76
2023/12/07 02:31:14;;;;;;;51.87;30.03;;;0.90;99.90;;;;;;5082843;28;20200;-76
2023/12/07 02:33:40;;;;;;;46.10;29.57;;;0.90;99.90;;;;;;5074523;28;20604;-77
2023/12/07 02:36:08;;;;;;;52.10;31.37;;;0.90;99.90;;;;;;5074480;28;20196;-76
2023/12/07 02:38:36;;;;;;;49.97;29.60;;;0.90;99.90;;;;;;5074015;28;20201;-76
2023/12/07 02:41:03;;;;;;;50.40;29.23;;;0.90;99.90;;;;;;5074268;28;20564;-76
2023/12/07 02:43:30;;;;;;;48.17;28.97;;;1.00;99.90;;;;;;5074409;28;20205;-76
2023/12/07 02:45:58;;;;;;;46.30;29.43;;;0.90;99.90;;;;;;5074103;28;20200;-76
2023/12/07 02:48:26;;;;;;;46.13;29.73;;;0.90;99.90;;;;;;5073921;28;20205;-76
2023/12/07 02:50:52;;;;;;;47.30;29.23;;;1.00;99.90;;;;;;5074146;28;20205;-77
2023/12/07 02:53:19;;;;;;;46.20;28.43;;;1.00;99.90;;;;;;5074021;28;20200;-76
2023/12/07 02:55:46;;;;;;;44.60;28.67;;;1.00;99.90;;;;;;5073513;28;20230;-76
2023/12/07 02:58:12;;;;;;;50.43;29.03;;;1.00;99.90;;;;;;5074088;28;20205;-76
2023/12/07 03:00:39;;;;;;;46.87;29.80;;;1.00;99.90;;;;;;5073918;28;20705;-76
2023/12/07 03:03:07;;;;;;;44.87;27.60;;;1.00;99.90;;;;;;5073854;28;20262;-76
2023/12/07 03:05:34;;;;;;;49.20;30.10;;;1.10;99.90;;;;;;5073788;28;20670;-76
2023/12/07 03:08:00;;;;;;;50.07;29.53;;;1.10;99.90;;;;;;5073525;28;20286;-76
2023/12/07 03:10:27;;;;;;;48.87;29.93;;;1.00;99.90;;;;;;5073819;28;20201;-76
2023/12/07 03:12:54;;;;;;;49.50;30.53;;;1.00;99.90;;;;;;5073698;28;20193;-77
2023/12/07 03:15:20;;;;;;;47.70;29.23;;;1.00;99.90;;;;;;5073476;28;20631;-77
2023/12/07 03:17:47;;;;;;;50.07;29.70;;;1.00;99.90;;;;;;5073619;28;20197;-77
2023/12/07 03:20:15;;;;;;;53.20;30.43;;;1.00;99.90;;;;;;5073411;28;20201;-76
2023/12/07 03:22:42;;;;;;;47.73;29.83;;;1.00;99.90;;;;;;5073623;28;20254;-76
2023/12/07 03:25:09;;;;;;;54.57;30.67;;;1.00;99.90;;;;;;5073821;28;20588;-75
2023/12/07 03:27:35;;;;;;;53.10;30.70;;;1.00;99.90;;;;;;5073698;28;20311;-76
2023/12/07 03:30:02;;;;;;;47.47;29.57;;;0.90;99.90;;;;;;5073619;28;20200;-76
2023/12/07 03:32:29;;;;;;;51.70;30.40;;;1.00;99.90;;;;;;5073463;28;20648;-76
2023/12/07 03:34:55;;;;;;;51.10;30.63;;;1.00;99.90;;;;;;5073060;28;20247;-76
2023/12/07 03:37:23;;;;;;;52.77;31.97;;;1.00;99.90;;;;;;5073322;28;20201;-76
2023/12/07 03:39:50;;;;;;;51.63;31.13;;;1.00;99.90;;;;;;5073361;28;20611;-76
2023/12/07 03:42:17;;;;;;;51.37;30.20;;;1.00;99.90;;;;;;5072980;28;20556;-76
2023/12/07 03:44:43;;;;;;;52.50;30.90;;;1.00;99.90;;;;;;5073067;28;20250;-76
2023/12/07 03:47:10;;;;;;;52.17;29.43;;;1.00;99.90;;;;;;5072918;28;20302;-76
2023/12/07 03:49:38;;;;;;;52.30;31.47;;;1.00;99.90;;;;;;5072726;28;20312;-77
2023/12/07 03:52:05;;;;;;;52.53;30.63;;;1.00;99.90;;;;;;5072818;28;20239;-76
2023/12/07 03:54:34;;;;;;;54.83;30.60;;;1.00;99.90;;;;;;5073042;28;20197;-76
2023/12/07 03:57:01;;;;;;;48.40;30.60;;;1.00;99.90;;;;;;5072880;28;20211;-76
2023/12/07 03:59:28;;;;;;;46.07;29.17;;;1.00;99.90;;;;;;5072914;28;20205;-76
2023/12/07 04:01:54;;;;;;;48.80;31.13;;;1.00;99.90;;;;;;5072791;28;20250;-77
2023/12/07 04:04:21;;;;;;;53.83;30.97;;;1.00;99.90;;;;;;5072731;28;20265;-76
2023/12/07 04:06:48;;;;;;;53.40;32.50;;;1.00;99.90;;;;;;5072129;28;20286;-76
2023/12/07 04:09:14;;;;;;;62.73;37.87;;;1.00;99.90;;;;;;5072884;28;20251;-75
2023/12/07 04:11:42;;;;;;;73.23;42.87;;;1.00;99.90;;;;;;5072653;28;20209;-75
2023/12/07 04:14:09;;;;;;;114.77;71.97;;;1.00;99.90;;;;;;5072824;28;20247;-76
2023/12/07 04:16:36;;;;;;;51.17;31.50;;;1.00;99.90;;;;;;5073129;28;20258;-75
2023/12/07 04:19:03;;;;;;;48.27;29.10;;;0.90;99.90;;;;;;5072772;28;20208;-76
2023/12/07 04:21:29;;;;;;;56.30;36.23;;;0.90;99.90;;;;;;5072637;28;20262;-75
2023/12/07 04:23:56;;;;;;;53.37;35.07;;;0.80;99.90;;;;;;5072755;28;20200;-75
2023/12/07 04:26:23;;;;;;;50.17;30.53;;;0.70;99.90;;;;;;5072376;28;20575;-76
2023/12/07 04:28:51;;;;;;;55.63;31.50;;;0.70;99.90;;;;;;5072622;28;20254;-76
2023/12/07 04:31:17;;;;;;;52.60;31.27;;;0.70;99.90;;;;;;5072498;28;20334;-76
2023/12/07 04:33:44;;;;;;;49.33;28.97;;;0.70;99.90;;;;;;5072544;28;20721;-76
2023/12/07 04:36:12;;;;;;;51.23;30.27;;;0.60;99.90;;;;;;5072684;28;20251;-76
2023/12/07 04:38:38;;;;;;;50.50;30.20;;;0.50;99.90;;;;;;5072597;28;20212;-76
2023/12/07 04:41:05;;;;;;;48.43;30.13;;;0.50;99.90;;;;;;5072405;28;20197;-76
2023/12/07 04:43:32;;;;;;;59.63;33.37;;;0.50;99.90;;;;;;5072239;28;20200;-76
2023/12/07 04:46:00;;;;;;;55.70;31.50;;;0.60;99.90;;;;;;5072425;28;20618;-76
2023/12/07 04:48:26;;;;;;;55.53;32.03;;;0.50;99.90;;;;;;5072200;28;20224;-75
2023/12/07 04:50:53;;;;;;;50.97;31.00;;;0.50;99.90;;;;;;5072283;28;20303;-75
2023/12/07 04:53:20;;;;;;;52.90;31.43;;;0.50;99.90;;;;;;5072428;28;20597;-75
2023/12/07 04:55:50;;;;;;;56.17;30.80;;;0.50;99.90;;;;;;5072355;28;20251;-75
2023/12/07 04:58:16;;;;;;;58.70;33.10;;;0.50;99.90;;;;;;5072143;28;20675;-76
2023/12/07 05:00:43;;;;;;;54.37;32.40;;;0.50;99.90;;;;;;5072383;28;20625;-75
2023/12/07 05:03:11;;;;;;;58.47;31.90;;;0.50;99.90;;;;;;5072143;28;20197;-76
2023/12/07 05:05:37;;;;;;;57.27;32.73;;;0.60;99.90;;;;;;5072402;28;20197;-76
2023/12/07 05:08:05;;;;;;;58.70;34.20;;;0.60;99.90;;;;;;5072111;28;20279;-76
2023/12/07 05:10:31;;;;;;;58.20;32.57;;;0.60;99.90;;;;;;5072104;28;20769;-75
2023/12/07 05:12:58;;;;;;;57.27;32.43;;;0.50;99.90;;;;;;5071998;28;20197;-76
2023/12/07 05:15:25;;;;;;;60.83;33.80;;;0.50;99.90;;;;;;5072173;28;20605;-76
2023/12/07 05:17:51;;;;;;;61.37;33.37;;;0.50;99.90;;;;;;5073445;28;20205;-76
2023/12/07 05:20:22;;;;;;;57.90;32.97;;;0.60;99.90;;;;;;5075875;28;20204;-77
2023/12/07 05:22:49;;;;;;;59.93;33.07;;;0.60;99.90;;;;;;5075852;28;20283;-76
2023/12/07 05:25:15;;;;;;;58.97;33.67;;;0.60;99.90;;;;;;5075705;28;20224;-76
2023/12/07 05:27:42;;;;;;;60.03;35.03;;;0.60;99.90;;;;;;5075863;28;20225;-76
2023/12/07 05:30:10;;;;;;;63.77;34.80;;;0.60;99.90;;;;;;5075877;28;20274;-76
2023/12/07 05:32:37;;;;;;;76.00;44.47;;;0.50;99.90;;;;;;5075726;28;20197;-77
2023/12/07 05:35:05;;;;;;;58.90;34.43;;;0.50;99.90;;;;;;5075764;28;20632;-76
2023/12/07 05:37:33;;;;;;;60.77;33.53;;;0.50;99.90;;;;;;5075456;28;20209;-75
2023/12/07 05:40:00;;;;;;;59.53;33.23;;;0.50;99.90;;;;;;5075505;28;20204;-76
2023/12/07 05:42:27;;;;;;;61.07;33.73;;;0.50;99.90;;;;;;5075386;28;20219;-75
2023/12/07 05:44:54;;;;;;;61.57;33.80;;;0.60;99.90;;;;;;5075527;28;20201;-76
2023/12/07 05:47:23;;;;;;;66.03;35.33;;;0.50;99.90;;;;;;5075372;28;20225;-77
2023/12/07 05:49:49;;;;;;;68.53;36.10;;;0.60;99.90;;;;;;5075168;28;20252;-76
2023/12/07 05:52:16;;;;;;;69.63;35.67;;;0.60;99.90;;;;;;5075247;28;20193;-75
2023/12/07 05:54:46;;;;;;;64.77;35.63;;;0.60;99.90;;;;;;5075272;28;20193;-77
2023/12/07 05:57:13;;;;;;;64.57;35.83;;;0.50;99.90;;;;;;5075212;28;20708;-76
2023/12/07 05:59:41;;;;;;;69.73;35.87;;;0.50;99.90;;;;;;5083005;28;20251;-77
2023/12/07 06:02:08;;;;;;;64.33;35.33;;;0.60;99.90;;;;;;5075066;28;20243;-77
2023/12/07 06:04:34;;;;;;;65.20;34.87;;;0.60;99.90;;;;;;5074907;28;20226;-76
2023/12/07 06:07:02;;;;;;;63.70;35.63;;;0.60;99.90;;;;;;5074974;28;20204;-77
2023/12/07 06:09:28;;;;;;;60.57;33.70;;;0.60;99.90;;;;;;5075064;28;20306;-77
2023/12/07 06:11:57;;;;;;;67.70;35.87;;;0.60;99.90;;;;;;5074842;28;20200;-76
2023/12/07 06:14:23;;;;;;;62.20;35.83;;;0.70;99.90;;;;;;5074888;28;20671;-77
2023/12/07 06:16:50;;;;;;;63.87;35.50;;;0.70;99.90;;;;;;5074963;28;20227;-77
2023/12/07 06:19:17;;;;;;;71.63;36.63;;;0.70;99.90;;;;;;5075022;28;20266;-76
2023/12/07 06:21:44;;;;;;;70.77;37.10;;;0.80;99.90;;;;;;5074772;28;20201;-75
2023/12/07 06:24:11;;;;;;;74.57;37.30;;;0.90;99.90;;;;;;5074716;28;20288;-76
2023/12/07 06:26:38;;;;;;;74.30;37.53;;;0.80;99.90;;;;;;5074703;28;20284;-77
2023/12/07 06:29:07;;;;;;;73.53;37.87;;;0.80;99.90;;;;;;5073514;28;20237;-77
2023/12/07 06:31:34;;;;;;;123.83;53.10;;;0.80;99.90;;;;;;5074362;28;20201;-76
2023/12/07 06:34:01;;;;;;;85.23;42.00;;;0.80;99.90;;;;;;5074321;28;20205;-77
2023/12/07 06:36:27;;;;;;;82.90;40.87;;;0.80;99.90;;;;;;5074401;28;20291;-77
2023/12/07 06:38:54;;;;;;;75.73;38.40;;;0.80;99.90;;;;;;5074042;28;20610;-76
2023/12/07 06:41:21;;;;;;;73.90;39.70;;;0.80;99.90;;;;;;5074247;28;20247;-76
2023/12/07 06:43:48;;;;;;;76.47;40.13;;;0.80;99.90;;;;;;5074257;28;20231;-76
2023/12/07 06:46:16;;;;;;;75.77;42.17;;;0.80;99.90;;;;;;5074327;28;20606;-77
2023/12/07 06:48:43;;;;;;;71.23;39.03;;;0.80;99.90;;;;;;5073687;28;20669;-76
2023/12/07 06:51:09;;;;;;;83.13;42.33;;;0.80;99.90;;;;;;5074127;28;20193;-77
2023/12/07 06:53:36;;;;;;;71.17;37.40;;;0.80;99.90;;;;;;5073713;28;20672;-76
2023/12/07 06:56:03;;;;;;;67.43;36.33;;;0.90;99.90;;;;;;5074021;28;20200;-77
2023/12/07 06:58:30;;;;;;;70.40;36.47;;;0.90;99.90;;;;;;5073972;28;20197;-77
2023/12/07 07:00:57;;;;;;;75.00;37.00;;;0.90;99.90;;;;;;5073837;28;20644;-76
2023/12/07 07:03:25;;;;;;;93.23;45.37;;;0.90;99.90;;;;;;5073921;28;20672;-77
2023/12/07 07:05:52;;;;;;;89.90;44.03;;;0.90;99.90;;;;;;5073875;28;20756;-79
2023/12/07 07:08:18;;;;;;;77.37;41.33;;;0.90;99.90;;;;;;5073749;28;20221;-76
2023/12/07 07:10:45;;;;;;;75.63;40.37;;;0.90;99.90;;;;;;5073811;28;20536;-76
2023/12/07 07:13:14;;;;;;;77.73;41.20;;;0.90;99.90;;;;;;5073863;28;20553;-76
2023/12/07 07:15:43;;;;;;;72.70;37.03;;;0.90;99.90;;;;;;5073740;28;20208;-75
2023/12/07 07:18:09;;;;;;;72.73;37.07;;;0.90;99.90;;;;;;5073671;28;20208;-77
2023/12/07 07:20:37;;;;;;;67.27;35.10;;;1.00;99.90;;;;;;5073879;28;20251;-77
2023/12/07 07:23:04;;;;;;;145.27;57.87;;;1.00;99.90;;;;;;5073757;28;20197;-77
2023/12/07 07:25:31;;;;;;;81.73;41.10;;;1.00;99.90;;;;;;5075076;28;20208;-77
2023/12/07 07:27:57;;;;;;;81.70;40.80;;;1.10;99.90;;;;;;5073505;28;20228;-76
2023/12/07 07:30:24;;;;;;;71.70;40.23;;;1.00;99.90;;;;;;5073423;28;20192;-75
2023/12/07 07:32:51;;;;;;;72.47;38.00;;;1.00;99.90;;;;;;5073616;28;20292;-76
2023/12/07 07:35:18;;;;;;;71.13;37.27;;;1.00;99.90;;;;;;5073519;28;20283;-76
2023/12/07 07:37:46;;;;;;;72.07;36.57;;;1.10;99.90;;;;;;5073369;28;20726;-75
2023/12/07 07:40:13;;;;;;;74.47;38.67;;;1.10;99.90;;;;;;5073467;28;20231;-76
2023/12/07 07:42:40;;;;;;;73.80;36.57;;;1.10;99.90;;;;;;5073375;28;20201;-75
2023/12/07 07:45:08;;;;;;;66.07;36.47;;;1.10;99.90;;;;;;5073242;28;20228;-75
2023/12/07 07:47:34;;;;;;;66.07;35.90;;;1.10;99.90;;;;;;5073455;28;20255;-76
2023/12/07 07:50:05;;;;;;;60.97;33.93;;;1.10;99.90;;;;;;5072998;28;20225;-76
2023/12/07 07:52:32;;;;;;;63.00;36.17;;;1.10;99.90;;;;;;5073427;28;20212;-76
2023/12/07 07:55:00;;;;;;;61.67;34.30;;;1.10;99.90;;;;;;5072881;28;20266;-76
2023/12/07 07:57:27;;;;;;;53.97;32.33;;;1.10;99.90;;;;;;5072958;28;20243;-76
2023/12/07 07:59:53;;;;;;;56.13;33.60;;;1.20;99.90;;;;;;5072983;28;20258;-76
2023/12/07 08:02:21;;;;;;;53.83;31.93;;;1.20;99.90;;;;;;5072884;28;20656;-76
2023/12/07 08:04:48;;;;;;;55.20;31.93;;;1.20;99.90;;;;;;5071899;28;20711;-74
2023/12/07 08:07:16;;;;;;;53.00;31.00;;;1.20;99.90;;;;;;5070143;28;20651;-73
2023/12/07 08:09:43;;;;;;;53.23;32.00;;;1.10;99.90;;;;;;5072850;28;20228;-75
2023/12/07 08:12:11;;;;;;;51.20;31.63;;;1.20;99.90;;;;;;5072707;28;20652;-74
2023/12/07 08:14:37;;;;;;;54.00;31.93;;;1.20;99.90;;;;;;5072954;28;20197;-76
2023/12/07 08:17:04;;;;;;;53.57;31.43;;;1.20;99.90;;;;;;5071539;28;20304;-76
2023/12/07 08:19:31;;;;;;;49.60;30.83;;;1.30;99.90;;;;;;5072806;28;20201;-79
2023/12/07 08:21:58;;;;;;;46.83;29.77;;;1.30;99.90;;;;;;5072882;28;20201;-79
2023/12/07 08:24:25;;;;;;;48.30;29.07;;;1.40;99.90;;;;;;5072665;28;20291;-79
2023/12/07 08:26:52;;;;;;;45.40;27.17;;;1.40;99.90;;;;;;5073010;28;20262;-77
2023/12/07 08:29:20;;;;;;;46.10;27.40;;;1.50;99.90;;;;;;5072637;28;20277;-79
2023/12/07 08:31:46;;;;;;;39.50;26.50;;;1.50;99.90;;;;;;5072569;28;20205;-78
2023/12/07 08:34:13;;;;;;;35.53;21.47;;;1.50;99.90;;;;;;5072737;28;20224;-78
2023/12/07 08:36:40;;;;;;;30.93;22.27;;;1.60;99.90;;;;;;5072610;28;20251;-76
2023/12/07 08:39:09;;;;;;;33.93;22.90;;;1.60;99.90;;;;;;5072643;28;20193;-78
2023/12/07 08:41:36;;;;;;;22.00;15.77;;;1.70;99.90;;;;;;5072683;28;20199;-75
2023/12/07 08:44:03;;;;;;;26.43;17.60;;;1.60;99.90;;;;;;5072573;28;20251;-75
2023/12/07 08:46:31;;;;;;;23.67;17.07;;;1.80;99.90;;;;;;5072603;28;20193;-75
2023/12/07 08:48:57;;;;;;;23.73;17.17;;;1.70;99.90;;;;;;5072423;28;20761;-78
2023/12/07 08:51:24;;;;;;;26.90;18.37;;;1.90;99.90;;;;;;5072640;28;20599;-78
2023/12/07 08:53:52;;;;;;;20.93;13.90;;;1.90;99.90;;;;;;5075383;28;20197;-78
2023/12/07 08:56:18;;;;;;;19.03;13.10;;;1.80;99.90;;;;;;5076554;28;20207;-75
2023/12/07 08:58:45;;;;;;;20.43;14.83;;;1.70;99.90;;;;;;5076235;28;20712;-73
2023/12/07 09:01:12;;;;;;;17.17;12.73;;;1.70;99.90;;;;;;5077063;28;20200;-74
2023/12/07 09:03:41;;;;;;;21.87;14.50;;;1.60;99.90;;;;;;5076171;28;20200;-74
2023/12/07 09:06:08;;;;;;;21.03;15.10;;;1.60;99.90;;;;;;5076406;28;20200;-77
2023/12/07 09:08:35;;;;;;;19.40;14.27;;;1.90;99.90;;;;;;5076201;28;20232;-74
2023/12/07 09:11:03;;;;;;;18.73;13.13;;;2.10;99.90;;;;;;5076304;28;20231;-75
2023/12/07 09:13:30;;;;;;;16.60;13.03;;;2.20;99.90;;;;;;5076319;28;20209;-75
2023/12/07 09:15:56;;;;;;;16.43;12.27;;;2.40;99.90;;;;;;5076005;28;20259;-75
2023/12/07 09:18:24;;;;;;;18.23;13.47;;;2.40;99.90;;;;;;5075565;28;20664;-75
2023/12/07 09:20:52;;;;;;;15.47;13.03;;;2.80;99.90;;;;;;5075855;28;20277;-75
2023/12/07 09:23:19;;;;;;;19.67;12.97;;;3.10;99.90;;;;;;5076342;28;20200;-74
2023/12/07 09:25:47;;;;;;;18.07;13.90;;;3.30;99.90;;;;;;5075811;28;20255;-74
2023/12/07 09:28:13;;;;;;;16.83;13.37;;;3.20;99.90;;;;;;5082179;28;20193;-75
2023/12/07 09:30:40;;;;;;;18.93;14.30;;;3.00;99.90;;;;;;5075908;28;20201;-74
2023/12/07 09:33:06;;;;;;;17.53;13.63;;;2.90;99.90;;;;;;5075673;28;20611;-75
2023/12/07 09:35:34;;;;;;;20.57;14.77;;;2.60;99.90;;;;;;5075705;28;20203;-74
2023/12/07 09:38:02;;;;;;;20.43;15.53;;;2.60;99.90;;;;;;5075899;28;20200;-73
2023/12/07 09:40:30;;;;;;;23.67;15.73;;;2.70;99.90;;;;;;5075790;28;20196;-74
2023/12/07 09:42:57;;;;;;;20.53;14.73;;;2.90;99.90;;;;;;5075554;28;20203;-74
2023/12/07 09:45:23;;;;;;;21.00;15.83;;;2.90;99.90;;;;;;5075529;28;20203;-74
2023/12/07 09:47:52;;;;;;;21.63;16.97;;;2.70;99.90;;;;;;5075410;28;20249;-74
2023/12/07 09:50:21;;;;;;;20.07;15.27;;;2.50;99.90;;;;;;5075169;28;20294;-74
2023/12/07 09:52:49;;;;;;;22.17;15.77;;;2.60;99.90;;;;;;5075578;28;20306;-74
2023/12/07 09:55:19;;;;;;;20.10;14.50;;;2.50;99.90;;;;;;5075456;28;20291;-75
2023/12/07 09:57:46;;;;;;;17.60;14.27;;;2.50;99.90;;;;;;5075416;28;20253;-75
2023/12/07 10:00:14;;;;;;;19.90;15.27;;;2.30;99.90;;;;;;5075322;28;20203;-75
2023/12/07 10:02:42;;;;;;;20.53;14.60;;;2.50;99.90;;;;;;5075202;28;20655;-74
2023/12/07 10:05:10;;;;;;;18.37;14.23;;;3.00;99.90;;;;;;5074033;28;20541;-75
2023/12/07 10:07:42;;;;;;;17.13;14.30;;;3.60;99.90;;;;;;5075272;28;20595;-75
2023/12/07 10:10:11;;;;;;;15.53;12.90;;;4.30;99.90;;;;;;5075008;28;20221;-75
2023/12/07 10:12:47;;;;;;;17.77;14.43;;;5.00;99.90;;;;;;5074999;28;20193;-75
2023/12/07 10:15:15;;;;;;;16.53;14.70;;;5.60;99.90;;;;;;5074967;28;20640;-75
2023/12/07 10:17:47;;;;;;;16.83;14.40;;;5.70;99.90;;;;;;5075089;28;20197;-75
2023/12/07 10:20:15;;;;;;;19.87;15.53;;;6.10;99.90;;;;;;5075180;28;20295;-75
2023/12/07 10:22:42;;;;;;;17.03;14.83;;;6.20;99.90;;;;;;5074985;28;20197;-75
2023/12/07 10:25:11;;;;;;;17.77;14.73;;;7.30;99.90;;;;;;5074890;28;20197;-75
2023/12/07 10:27:40;;;;;;;15.77;14.07;;;8.50;99.90;;;;;;5074772;28;20201;-75
2023/12/07 10:30:10;;;;;;;15.37;13.77;;;8.60;99.90;;;;;;5074786;28;20225;-75
2023/12/07 10:32:38;;;;;;;15.50;13.90;;;8.70;99.90;;;;;;5074970;28;20207;-75
2023/12/07 10:35:07;;;;;;;16.23;14.60;;;9.00;99.90;;;;;;5074583;28;20679;-74
2023/12/07 10:37:34;;;;;;;14.43;13.03;;;8.40;99.90;;;;;;5074615;28;20557;-75
2023/12/07 10:40:01;;;;;;;17.67;15.20;;;8.10;99.90;;;;;;5074526;28;20254;-75
2023/12/07 10:42:32;;;;;;;15.87;14.17;;;8.20;99.90;;;;;;5074569;28;20205;-75
2023/12/07 10:45:05;;;;;;;16.67;14.63;;;8.70;99.90;;;;;;5074361;28;20615;-75
2023/12/07 10:47:33;;;;;;;15.33;13.73;;;6.10;99.90;;;;;;5074516;28;20207;-75
2023/12/07 10:50:02;;;;;;;15.23;13.60;;;5.50;99.90;;;;;;5074044;28;20245;-75
2023/12/07 10:52:32;;;;;;;17.93;15.43;;;5.00;99.90;;;;;;5074334;28;20205;-75
2023/12/07 10:55:04;;;;;;;19.63;17.00;;;4.90;99.90;;;;;;5074296;28;20197;-75
2023/12/07 10:57:33;;;;;;;19.77;16.60;;;5.10;99.90;;;;;;5074247;28;20255;-75
2023/12/07 11:00:02;;;;;;;17.57;15.03;;;6.20;99.90;;;;;;5074093;28;20251;-75
2023/12/07 11:02:30;;;;;;;18.37;16.30;;;6.70;99.90;;;;;;5074142;28;20291;-75
2023/12/07 11:04:58;;;;;;;22.00;17.73;;;6.80;99.90;;;;;;5073832;28;20196;-74
2023/12/07 11:07:28;;;;;;;17.33;14.90;;;8.30;99.90;;;;;;5073949;28;20588;-75
2023/12/07 11:10:06;;;;;;;17.90;15.00;;;7.30;99.90;;;;;;5073983;28;20255;-75
2023/12/07 11:12:41;;;;;;;17.97;15.37;;;5.80;99.90;;;;;;5073939;28;20221;-76
2023/12/07 11:15:10;;;;;;;14.60;12.30;;;6.30;99.90;;;;;;5073477;28;20193;-75
2023/12/07 11:17:50;;;;;;;16.20;14.10;;;8.20;99.90;;;;;;5073616;28;20231;-76
2023/12/07 11:20:20;;;;;;;13.93;12.43;;;9.60;99.90;;;;;;5074245;28;20196;-76
2023/12/07 11:22:48;;;;;;;14.10;12.63;;;11.50;99.90;;;;;;5077682;28;20617;-75
2023/12/07 11:25:16;;;;;;;16.27;14.50;;;11.20;99.90;;;;;;5073337;28;20665;-75
2023/12/07 11:27:47;;;;;;;14.63;13.10;;;9.80;99.90;;;;;;5073692;28;20193;-75
2023/12/07 11:30:16;;;;;;;15.60;14.10;;;10.30;99.90;;;;;;5073780;28;20287;-75
2023/12/07 11:32:43;;;;;;;15.83;14.33;;;9.60;99.90;;;;;;5074065;28;20604;-75
2023/12/07 11:35:13;;;;;;;17.57;15.77;;;8.40;99.90;;;;;;5073243;28;20200;-75
2023/12/07 11:38:03;;;;;;;15.63;14.03;;;7.70;99.90;;;;;;5073323;28;20281;-75
2023/12/07 11:40:30;;;;;;;16.33;14.63;;;7.10;99.90;;;;;;5072912;28;20203;-75
2023/12/07 11:42:57;;;;;;;15.93;14.07;;;6.40;99.90;;;;;;5073001;28;20559;-75
2023/12/07 11:45:41;;;;;;;15.70;14.20;;;6.10;99.90;;;;;;5073321;28;20204;-80
2023/12/07 11:48:12;;;;;;;15.70;14.10;;;5.90;99.90;;;;;;5072949;28;20254;-77
2023/12/07 11:50:55;;;;;;;16.90;14.03;;;5.70;99.90;;;;;;5072874;28;20760;-76
2023/12/07 11:53:23;;;;;;;16.27;14.50;;;5.40;99.90;;;;;;5073396;28;20235;-76
2023/12/07 11:55:50;;;;;;;15.67;13.83;;;5.10;99.90;;;;;;5061459;28;20688;-76
2023/12/07 11:58:17;;;;;;;19.73;16.83;;;5.20;99.90;;;;;;5053195;28;20194;-76
2023/12/07 12:00:46;;;;;;;19.43;15.80;;;5.00;99.90;;;;;;5053542;28;20204;-73
2023/12/07 12:03:13;;;;;;;18.77;14.80;;;4.70;99.90;;;;;;5053414;28;20225;-75
2023/12/07 12:05:40;;;;;;;16.93;15.07;;;4.50;99.90;;;;;;5053417;28;20588;-77
2023/12/07 12:08:07;;;;;;;18.27;15.07;;;4.70;99.90;;;;;;5053088;28;20703;-78
2023/12/07 12:10:33;;;;;;;18.30;15.57;;;4.80;99.90;;;;;;5052659;28;20226;-79
2023/12/07 12:13:03;;;;;;;18.03;15.00;;;4.80;99.90;;;;;;5053373;28;20209;-79
2023/12/07 12:15:29;;;;;;;17.47;14.77;;;5.00;99.90;;;;;;5053089;28;20252;-80
2023/12/07 12:17:58;;;;;;;16.70;14.50;;;5.00;99.90;;;;;;5053096;28;20610;-82
2023/12/07 12:20:25;;;;;;;19.13;14.10;;;4.90;99.90;;;;;;5052657;28;20264;-76
2023/12/07 12:22:53;;;;;;;18.50;13.90;;;4.50;99.90;;;;;;5052743;28;20795;-76
2023/12/07 12:25:22;;;;;;;15.77;14.07;;;4.20;99.90;;;;;;5052858;28;20319;-77
2023/12/07 12:27:50;;;;;;;17.47;13.83;;;4.10;99.90;;;;;;5051784;28;20606;-79
2023/12/07 12:30:17;;;;;;;18.67;15.77;;;4.00;99.90;;;;;;5053456;28;20291;-78
2023/12/07 12:32:44;;;;;;;16.40;13.80;;;4.00;99.90;;;;;;5054169;28;20240;-78
2023/12/07 12:35:14;;;;;;;19.10;14.60;;;4.00;99.90;;;;;;5053029;28;20204;-78
2023/12/07 12:37:41;;;;;;;17.10;14.67;;;4.10;99.90;;;;;;5058527;28;20628;-79